createdAt,value
2023-05-25T17:35:26.020Z,101406.90
2023-05-25T17:38:15.592Z,101412.74
2023-05-25T17:40:50.079Z,101420.80
2023-05-25T17:43:19.664Z,101420.72
2023-05-25T17:45:55.363Z,101423.94
2023-05-25T17:48:26.424Z,101425.52
2023-05-25T17:50:55.425Z,101428.14
2023-05-25T17:53:32.551Z,101434.56
2023-05-25T17:56:09.519Z,101439.41
2023-05-25T17:59:07.000Z,101444.00
2023-05-25T18:01:39.068Z,101449.13
2023-05-25T18:04:09.482Z,101448.02
2023-05-25T18:06:38.836Z,101445.14
2023-05-25T18:09:15.511Z,101450.08
2023-05-25T18:12:14.640Z,101455.32
2023-05-25T18:14:51.602Z,101461.32
2023-05-25T18:17:25.475Z,101457.84
2023-05-25T18:19:59.136Z,101462.52
2023-05-25T18:22:32.574Z,101464.86
2023-05-25T18:25:08.902Z,101466.20
2023-05-25T18:27:39.442Z,101469.77
2023-05-25T18:30:12.761Z,101476.92
2023-05-25T18:32:46.002Z,101477.63
2023-05-25T18:35:14.964Z,101479.90
2023-05-25T18:37:59.120Z,101484.24
2023-05-25T18:40:28.451Z,101487.97
2023-05-25T18:42:58.283Z,101487.50
2023-05-25T18:45:30.442Z,101487.19
2023-05-25T18:48:07.781Z,101490.80
2023-05-25T18:50:37.936Z,101490.53
2023-05-25T18:53:10.344Z,101496.32
2023-05-25T18:55:40.415Z,101490.77
2023-05-25T18:58:09.726Z,101496.55
2023-05-25T19:00:40.350Z,101498.77
2023-05-25T19:03:09.233Z,101497.41
2023-05-25T19:05:38.163Z,101501.52
2023-05-25T19:08:09.682Z,101504.95
2023-05-25T19:11:32.532Z,101512.83
2023-05-25T19:14:42.521Z,101513.10
2023-05-25T19:17:13.371Z,101520.96
2023-05-25T19:19:42.662Z,101525.58
2023-05-25T19:22:13.091Z,101527.79
2023-05-25T19:24:44.289Z,101535.61
2023-05-25T19:27:20.357Z,101536.80
2023-05-25T19:29:48.960Z,101539.24
2023-05-25T19:32:29.423Z,101543.02
2023-05-25T19:34:58.424Z,101542.92
2023-05-25T19:37:30.892Z,101543.35
2023-05-25T19:39:59.911Z,101546.98
2023-05-25T19:42:28.792Z,101547.63
2023-05-25T19:45:02.487Z,101545.51
2023-05-25T19:47:59.777Z,101549.89
2023-05-25T19:50:38.325Z,101558.45
2023-05-25T19:53:07.695Z,101556.63
2023-05-25T19:55:41.246Z,101562.46
2023-05-25T19:58:20.569Z,101564.26
2023-05-25T20:00:49.746Z,101563.91
2023-05-25T20:03:21.523Z,101564.87
2023-05-25T20:05:51.890Z,101576.56
2023-05-25T20:08:40.696Z,101575.40
2023-05-25T20:11:37.856Z,101579.45
2023-05-25T20:14:21.027Z,101582.23
2023-05-25T20:17:00.788Z,101588.42
2023-05-25T20:19:30.751Z,101590.13
2023-05-25T20:22:05.832Z,101586.70
2023-05-25T20:24:37.978Z,101587.30
2023-05-25T20:27:07.530Z,101585.39
2023-05-25T20:30:10.248Z,101585.45
2023-05-25T20:32:43.814Z,101585.87
2023-05-25T20:35:16.009Z,101579.42
2023-05-25T20:37:44.770Z,101577.02
2023-05-25T20:40:14.587Z,101582.04
2023-05-25T20:42:47.003Z,101581.95
2023-05-25T20:45:15.849Z,101582.67
2023-05-25T20:47:47.150Z,101586.59
2023-05-25T20:50:18.702Z,101587.88
2023-05-25T20:52:47.755Z,101590.55
2023-05-25T20:55:16.590Z,101589.41
2023-05-25T20:57:44.942Z,101588.11
2023-05-25T21:00:19.008Z,101589.56
2023-05-25T21:02:48.230Z,101592.17
2023-05-25T21:05:20.752Z,101591.06
2023-05-25T21:07:49.752Z,101594.13
2023-05-25T21:10:18.671Z,101597.33
2023-05-25T21:12:47.456Z,101596.38
2023-05-25T21:15:16.432Z,101599.95
2023-05-25T21:17:45.424Z,101601.57
2023-05-25T21:20:14.187Z,101604.36
2023-05-25T21:22:44.524Z,101597.01
2023-05-25T21:25:13.207Z,101600.91
2023-05-25T21:27:42.158Z,101607.52
2023-05-25T21:30:11.515Z,101607.06
2023-05-25T21:32:40.129Z,101605.73
2023-05-25T21:35:11.366Z,101611.04
2023-05-25T21:37:40.619Z,101615.75
2023-05-25T21:40:15.168Z,101614.07
2023-05-25T21:42:44.111Z,101610.94
2023-05-25T21:45:13.200Z,101610.46
2023-05-25T21:47:41.974Z,101608.84
2023-05-25T21:50:10.826Z,101605.61
2023-05-25T21:52:41.969Z,101602.92
2023-05-25T21:55:10.991Z,101605.13
2023-05-25T21:57:39.582Z,101603.83
2023-05-25T22:00:13.162Z,101605.97
2023-05-25T22:02:41.794Z,101608.35
2023-05-25T22:05:11.635Z,101605.02
2023-05-25T22:07:40.167Z,101607.42
2023-05-25T22:10:09.572Z,101612.52
2023-05-25T22:12:38.345Z,101611.27
2023-05-25T22:15:07.493Z,101607.71
2023-05-25T22:17:37.426Z,101607.97
2023-05-25T22:20:08.275Z,101610.20
2023-05-25T22:22:40.278Z,101612.31
2023-05-25T22:25:09.614Z,101611.34
2023-05-25T22:27:39.174Z,101614.10
2023-05-25T22:30:11.234Z,101614.69
2023-05-25T22:32:42.133Z,101614.02
2023-05-25T22:35:10.878Z,101610.48
2023-05-25T22:37:39.715Z,101613.52
2023-05-25T22:40:09.310Z,101615.36
2023-05-25T22:42:38.489Z,101614.67
2023-05-25T22:45:08.010Z,101613.16
2023-05-25T22:47:40.598Z,101612.27
2023-05-25T22:50:09.367Z,101608.54
2023-05-25T22:52:41.303Z,101607.02
2023-05-25T22:55:10.376Z,101613.48
2023-05-25T22:57:41.859Z,101611.38
2023-05-25T23:00:10.664Z,101611.83
2023-05-25T23:02:39.279Z,101610.26
2023-05-25T23:05:09.512Z,101612.88
2023-05-25T23:07:39.756Z,101615.20
2023-05-25T23:10:08.820Z,101615.21
2023-05-25T23:12:37.672Z,101613.58
2023-05-25T23:15:08.451Z,101616.50
2023-05-25T23:17:37.251Z,101617.49
2023-05-25T23:20:07.901Z,101616.82
2023-05-25T23:22:37.011Z,101618.30
2023-05-25T23:25:07.617Z,101620.97
2023-05-25T23:27:38.886Z,101620.75
2023-05-25T23:30:08.420Z,101620.25
2023-05-25T23:32:38.972Z,101620.01
2023-05-25T23:35:08.369Z,101619.91
2023-05-25T23:37:37.418Z,101618.65
2023-05-25T23:40:06.331Z,101622.97
2023-05-25T23:42:39.306Z,101622.42
2023-05-25T23:45:11.642Z,101621.89
2023-05-25T23:47:40.812Z,101619.74
2023-05-25T23:50:10.072Z,101622.23
2023-05-25T23:52:38.894Z,101618.82
2023-05-25T23:55:08.281Z,101614.66
2023-05-25T23:57:37.150Z,101616.84
